sensor_id;sensor_type;location;lat;lon;timestamp;temperature;humidity
4820;DHT22;2424;49.696;6.630;2023-02-23T00:01:30;8.90;99.90
4820;DHT22;2424;49.696;6.630;2023-02-23T00:06:52;8.80;99.90
4820;DHT22;2424;49.696;6.630;2023-02-23T00:12:14;8.80;99.90
4820;DHT22;2424;49.696;6.630;2023-02-23T00:17:38;8.80;99.90
4820;DHT22;2424;49.696;6.630;2023-02-23T00:23:01;8.80;99.90
4820;DHT22;2424;49.696;6.630;2023-02-23T00:28:24;8.80;99.90
4820;DHT22;2424;49.696;6.630;2023-02-23T00:33:47;8.80;99.90
4820;DHT22;2424;49.696;6.630;2023-02-23T00:39:11;8.80;99.90
4820;DHT22;2424;49.696;6.630;2023-02-23T00:44:40;8.80;99.90
4820;DHT22;2424;49.696;6.630;2023-02-23T00:50:05;8.80;99.90
4820;DHT22;2424;49.696;6.630;2023-02-23T00:55:27;8.80;99.90
4820;DHT22;2424;49.696;6.630;2023-02-23T01:00:49;8.80;99.90
4820;DHT22;2424;49.696;6.630;2023-02-23T01:06:14;8.80;99.90
4820;DHT22;2424;49.696;6.630;2023-02-23T01:11:36;8.80;99.90
4820;DHT22;2424;49.696;6.630;2023-02-23T01:16:59;8.80;99.90
4820;DHT22;2424;49.696;6.630;2023-02-23T01:22:22;8.80;99.90
4820;DHT22;2424;49.696;6.630;2023-02-23T01:27:44;8.80;99.90
4820;DHT22;2424;49.696;6.630;2023-02-23T01:33:06;8.80;99.90
4820;DHT22;2424;49.696;6.630;2023-02-23T01:38:30;8.80;99.90
4820;DHT22;2424;49.696;6.630;2023-02-23T01:43:56;8.80;99.90
4820;DHT22;2424;49.696;6.630;2023-02-23T01:49:22;8.80;99.90
4820;DHT22;2424;49.696;6.630;2023-02-23T01:54:48;8.70;99.90
4820;DHT22;2424;49.696;6.630;2023-02-23T02:00:13;8.80;99.90
4820;DHT22;2424;49.696;6.630;2023-02-23T02:05:36;8.80;99.90
4820;DHT22;2424;49.696;6.630;2023-02-23T02:11:02;8.80;99.90
4820;DHT22;2424;49.696;6.630;2023-02-23T02:17:10;8.80;99.90
4820;DHT22;2424;49.696;6.630;2023-02-23T02:22:58;8.70;99.90
4820;DHT22;2424;49.696;6.630;2023-02-23T02:28:52;8.80;99.90
4820;DHT22;2424;49.696;6.630;2023-02-23T02:40:25;8.80;99.90
4820;DHT22;2424;49.696;6.630;2023-02-23T02:45:50;8.70;99.90
4820;DHT22;2424;49.696;6.630;2023-02-23T02:51:20;8.70;99.90
4820;DHT22;2424;49.696;6.630;2023-02-23T02:56:46;8.70;99.90
4820;DHT22;2424;49.696;6.630;2023-02-23T03:02:14;8.70;99.90
4820;DHT22;2424;49.696;6.630;2023-02-23T03:08:02;8.70;99.90
4820;DHT22;2424;49.696;6.630;2023-02-23T03:13:51;8.70;99.90
4820;DHT22;2424;49.696;6.630;2023-02-23T03:19:41;8.70;99.90
4820;DHT22;2424;49.696;6.630;2023-02-23T03:25:28;8.70;99.90
4820;DHT22;2424;49.696;6.630;2023-02-23T03:31:15;8.70;99.90
4820;DHT22;2424;49.696;6.630;2023-02-23T03:37:02;8.70;99.90
4820;DHT22;2424;49.696;6.630;2023-02-23T03:42:43;8.60;99.90
4820;DHT22;2424;49.696;6.630;2023-02-23T03:48:25;8.70;99.90
4820;DHT22;2424;49.696;6.630;2023-02-23T03:54:09;8.70;99.90
4820;DHT22;2424;49.696;6.630;2023-02-23T03:59:54;8.70;99.90
4820;DHT22;2424;49.696;6.630;2023-02-23T04:05:38;8.60;99.90
4820;DHT22;2424;49.696;6.630;2023-02-23T04:11:23;8.60;99.90
4820;DHT22;2424;49.696;6.630;2023-02-23T04:17:05;8.60;99.90
4820;DHT22;2424;49.696;6.630;2023-02-23T04:22:29;8.50;99.90
4820;DHT22;2424;49.696;6.630;2023-02-23T04:27:51;8.50;99.90
4820;DHT22;2424;49.696;6.630;2023-02-23T04:33:13;8.50;99.90
4820;DHT22;2424;49.696;6.630;2023-02-23T04:38:37;8.50;99.90
4820;DHT22;2424;49.696;6.630;2023-02-23T04:43:59;8.50;99.90
4820;DHT22;2424;49.696;6.630;2023-02-23T04:49:21;8.50;99.90
4820;DHT22;2424;49.696;6.630;2023-02-23T04:54:45;8.50;99.90
4820;DHT22;2424;49.696;6.630;2023-02-23T05:00:09;8.50;99.90
4820;DHT22;2424;49.696;6.630;2023-02-23T05:05:31;8.40;99.90
4820;DHT22;2424;49.696;6.630;2023-02-23T05:10:55;8.40;99.90
4820;DHT22;2424;49.696;6.630;2023-02-23T05:16:17;8.40;99.90
4820;DHT22;2424;49.696;6.630;2023-02-23T05:21:38;8.30;99.90
4820;DHT22;2424;49.696;6.630;2023-02-23T05:27:02;8.30;99.90
4820;DHT22;2424;49.696;6.630;2023-02-23T05:32:24;8.30;99.90
4820;DHT22;2424;49.696;6.630;2023-02-23T05:37:46;8.30;99.90
4820;DHT22;2424;49.696;6.630;2023-02-23T05:43:09;8.20;99.90
4820;DHT22;2424;49.696;6.630;2023-02-23T05:48:31;8.20;99.90
4820;DHT22;2424;49.696;6.630;2023-02-23T05:53:53;8.20;99.90
4820;DHT22;2424;49.696;6.630;2023-02-23T05:59:16;8.20;99.90
4820;DHT22;2424;49.696;6.630;2023-02-23T06:04:38;8.20;99.90
4820;DHT22;2424;49.696;6.630;2023-02-23T06:10:01;8.10;99.90
4820;DHT22;2424;49.696;6.630;2023-02-23T06:15:25;8.00;99.90
4820;DHT22;2424;49.696;6.630;2023-02-23T06:20:47;8.10;99.90
4820;DHT22;2424;49.696;6.630;2023-02-23T06:26:09;8.10;99.90
4820;DHT22;2424;49.696;6.630;2023-02-23T06:31:32;8.00;99.90
4820;DHT22;2424;49.696;6.630;2023-02-23T06:36:54;8.10;99.90
4820;DHT22;2424;49.696;6.630;2023-02-23T06:42:16;8.10;99.90
4820;DHT22;2424;49.696;6.630;2023-02-23T06:47:39;8.10;99.90
4820;DHT22;2424;49.696;6.630;2023-02-23T06:53:01;8.10;99.90
4820;DHT22;2424;49.696;6.630;2023-02-23T06:58:25;8.10;99.90
4820;DHT22;2424;49.696;6.630;2023-02-23T07:03:49;8.10;99.90
4820;DHT22;2424;49.696;6.630;2023-02-23T07:09:11;8.10;99.90
4820;DHT22;2424;49.696;6.630;2023-02-23T07:14:33;8.10;99.90
4820;DHT22;2424;49.696;6.630;2023-02-23T07:19:56;8.20;99.90
4820;DHT22;2424;49.696;6.630;2023-02-23T07:25:18;8.20;99.90
4820;DHT22;2424;49.696;6.630;2023-02-23T07:30:41;8.20;99.90
4820;DHT22;2424;49.696;6.630;2023-02-23T07:36:06;8.20;99.90
4820;DHT22;2424;49.696;6.630;2023-02-23T07:41:28;8.20;99.90
4820;DHT22;2424;49.696;6.630;2023-02-23T07:46:50;8.20;99.90
4820;DHT22;2424;49.696;6.630;2023-02-23T07:52:16;8.30;99.90
4820;DHT22;2424;49.696;6.630;2023-02-23T07:57:38;8.20;99.90
4820;DHT22;2424;49.696;6.630;2023-02-23T08:03:00;8.30;99.90
4820;DHT22;2424;49.696;6.630;2023-02-23T08:08:23;8.30;99.90
4820;DHT22;2424;49.696;6.630;2023-02-23T08:13:45;8.30;99.90
4820;DHT22;2424;49.696;6.630;2023-02-23T08:19:08;8.40;99.90
4820;DHT22;2424;49.696;6.630;2023-02-23T08:24:32;8.40;99.90
4820;DHT22;2424;49.696;6.630;2023-02-23T08:29:55;8.40;99.90
4820;DHT22;2424;49.696;6.630;2023-02-23T08:35:17;8.40;99.90
4820;DHT22;2424;49.696;6.630;2023-02-23T08:40:41;8.50;99.90
4820;DHT22;2424;49.696;6.630;2023-02-23T08:46:03;8.50;99.90
4820;DHT22;2424;49.696;6.630;2023-02-23T08:51:25;8.50;99.90
4820;DHT22;2424;49.696;6.630;2023-02-23T08:56:48;8.50;99.90
4820;DHT22;2424;49.696;6.630;2023-02-23T09:02:12;8.60;99.90
4820;DHT22;2424;49.696;6.630;2023-02-23T09:07:35;8.60;99.90
4820;DHT22;2424;49.696;6.630;2023-02-23T09:12:59;8.60;99.90
4820;DHT22;2424;49.696;6.630;2023-02-23T09:18:21;8.70;99.90
4820;DHT22;2424;49.696;6.630;2023-02-23T09:23:47;8.70;99.90
4820;DHT22;2424;49.696;6.630;2023-02-23T09:29:12;8.80;99.90
4820;DHT22;2424;49.696;6.630;2023-02-23T09:34:34;8.80;99.90
4820;DHT22;2424;49.696;6.630;2023-02-23T09:39:56;8.80;99.90
4820;DHT22;2424;49.696;6.630;2023-02-23T09:45:27;8.80;99.90
4820;DHT22;2424;49.696;6.630;2023-02-23T09:50:51;8.90;99.90
4820;DHT22;2424;49.696;6.630;2023-02-23T09:56:20;8.90;99.90
4820;DHT22;2424;49.696;6.630;2023-02-23T10:02:02;8.90;99.90
4820;DHT22;2424;49.696;6.630;2023-02-23T10:07:35;8.90;99.90
4820;DHT22;2424;49.696;6.630;2023-02-23T10:13:07;8.90;99.90
4820;DHT22;2424;49.696;6.630;2023-02-23T10:18:39;8.90;99.90
4820;DHT22;2424;49.696;6.630;2023-02-23T10:24:11;8.90;99.90
4820;DHT22;2424;49.696;6.630;2023-02-23T10:29:36;9.00;99.90
4820;DHT22;2424;49.696;6.630;2023-02-23T10:35:04;9.00;99.90
4820;DHT22;2424;49.696;6.630;2023-02-23T10:40:32;9.00;99.90
4820;DHT22;2424;49.696;6.630;2023-02-23T10:45:55;9.00;99.90
4820;DHT22;2424;49.696;6.630;2023-02-23T10:51:23;9.00;99.90
4820;DHT22;2424;49.696;6.630;2023-02-23T10:56:46;9.10;99.90
4820;DHT22;2424;49.696;6.630;2023-02-23T11:02:21;9.20;99.90
4820;DHT22;2424;49.696;6.630;2023-02-23T11:07:45;9.20;99.90
4820;DHT22;2424;49.696;6.630;2023-02-23T11:13:20;9.30;99.90
4820;DHT22;2424;49.696;6.630;2023-02-23T11:18:49;9.30;99.90
4820;DHT22;2424;49.696;6.630;2023-02-23T11:24:18;9.30;99.90
4820;DHT22;2424;49.696;6.630;2023-02-23T11:29:44;9.40;99.90
4820;DHT22;2424;49.696;6.630;2023-02-23T11:35:16;9.60;99.90
4820;DHT22;2424;49.696;6.630;2023-02-23T11:40:58;9.60;99.90
4820;DHT22;2424;49.696;6.630;2023-02-23T11:46:21;9.80;99.90
4820;DHT22;2424;49.696;6.630;2023-02-23T11:51:47;9.70;99.90
4820;DHT22;2424;49.696;6.630;2023-02-23T11:57:19;9.70;99.90
4820;DHT22;2424;49.696;6.630;2023-02-23T12:02:49;9.70;99.90
4820;DHT22;2424;49.696;6.630;2023-02-23T12:08:15;9.70;99.90
4820;DHT22;2424;49.696;6.630;2023-02-23T12:13:44;9.70;99.90
4820;DHT22;2424;49.696;6.630;2023-02-23T12:19:17;9.80;99.90
4820;DHT22;2424;49.696;6.630;2023-02-23T12:24:44;9.70;99.90
4820;DHT22;2424;49.696;6.630;2023-02-23T12:30:14;9.80;99.90
4820;DHT22;2424;49.696;6.630;2023-02-23T12:35:44;9.80;99.90
4820;DHT22;2424;49.696;6.630;2023-02-23T12:41:11;9.80;99.90
4820;DHT22;2424;49.696;6.630;2023-02-23T12:46:38;9.80;99.90
4820;DHT22;2424;49.696;6.630;2023-02-23T12:52:06;9.90;99.90
4820;DHT22;2424;49.696;6.630;2023-02-23T12:57:36;9.90;99.90
4820;DHT22;2424;49.696;6.630;2023-02-23T13:03:24;10.00;99.90
4820;DHT22;2424;49.696;6.630;2023-02-23T13:09:01;10.10;99.90
4820;DHT22;2424;49.696;6.630;2023-02-23T13:14:31;10.30;99.90
4820;DHT22;2424;49.696;6.630;2023-02-23T13:19:58;10.40;99.90
4820;DHT22;2424;49.696;6.630;2023-02-23T13:25:28;10.50;99.90
4820;DHT22;2424;49.696;6.630;2023-02-23T13:30:53;10.90;99.90
4820;DHT22;2424;49.696;6.630;2023-02-23T13:36:19;11.00;99.90
4820;DHT22;2424;49.696;6.630;2023-02-23T13:41:48;11.20;99.90
4820;DHT22;2424;49.696;6.630;2023-02-23T13:47:16;11.50;99.90
4820;DHT22;2424;49.696;6.630;2023-02-23T13:52:44;11.60;99.90
4820;DHT22;2424;49.696;6.630;2023-02-23T13:58:12;11.40;99.90
4820;DHT22;2424;49.696;6.630;2023-02-23T14:03:43;11.40;99.90
4820;DHT22;2424;49.696;6.630;2023-02-23T14:09:11;11.40;99.90
4820;DHT22;2424;49.696;6.630;2023-02-23T14:14:38;11.30;99.90
4820;DHT22;2424;49.696;6.630;2023-02-23T14:20:11;11.20;99.90
4820;DHT22;2424;49.696;6.630;2023-02-23T14:25:47;11.10;99.90
4820;DHT22;2424;49.696;6.630;2023-02-23T14:31:18;11.00;99.90
4820;DHT22;2424;49.696;6.630;2023-02-23T14:36:42;11.00;99.90
4820;DHT22;2424;49.696;6.630;2023-02-23T14:42:06;11.00;99.90
4820;DHT22;2424;49.696;6.630;2023-02-23T14:47:29;11.00;99.90
4820;DHT22;2424;49.696;6.630;2023-02-23T14:53:02;11.00;99.90
4820;DHT22;2424;49.696;6.630;2023-02-23T14:58:29;10.90;99.90
4820;DHT22;2424;49.696;6.630;2023-02-23T15:04:08;11.00;99.90
4820;DHT22;2424;49.696;6.630;2023-02-23T15:09:34;10.90;99.90
4820;DHT22;2424;49.696;6.630;2023-02-23T15:15:00;10.90;99.90
4820;DHT22;2424;49.696;6.630;2023-02-23T15:20:27;10.80;99.90
4820;DHT22;2424;49.696;6.630;2023-02-23T15:25:52;10.80;99.90
4820;DHT22;2424;49.696;6.630;2023-02-23T15:31:15;10.70;99.90
4820;DHT22;2424;49.696;6.630;2023-02-23T15:36:38;10.70;99.90
4820;DHT22;2424;49.696;6.630;2023-02-23T15:42:02;10.70;99.90
4820;DHT22;2424;49.696;6.630;2023-02-23T15:47:32;10.60;99.90
4820;DHT22;2424;49.696;6.630;2023-02-23T15:52:58;10.50;99.90
4820;DHT22;2424;49.696;6.630;2023-02-23T15:58:23;10.50;99.90
4820;DHT22;2424;49.696;6.630;2023-02-23T16:03:58;10.50;99.90
4820;DHT22;2424;49.696;6.630;2023-02-23T16:09:26;10.40;99.90
4820;DHT22;2424;49.696;6.630;2023-02-23T16:14:51;10.40;99.90
4820;DHT22;2424;49.696;6.630;2023-02-23T16:20:18;10.30;99.90
4820;DHT22;2424;49.696;6.630;2023-02-23T16:25:42;10.30;99.90
4820;DHT22;2424;49.696;6.630;2023-02-23T16:31:07;10.30;99.90
4820;DHT22;2424;49.696;6.630;2023-02-23T16:36:35;10.20;99.90
4820;DHT22;2424;49.696;6.630;2023-02-23T16:41:59;10.10;99.90
4820;DHT22;2424;49.696;6.630;2023-02-23T16:47:34;10.10;99.90
4820;DHT22;2424;49.696;6.630;2023-02-23T16:53:02;10.10;99.90
4820;DHT22;2424;49.696;6.630;2023-02-23T16:58:26;10.00;99.90
4820;DHT22;2424;49.696;6.630;2023-02-23T17:03:50;10.00;99.90
4820;DHT22;2424;49.696;6.630;2023-02-23T17:09:15;10.00;99.90
4820;DHT22;2424;49.696;6.630;2023-02-23T17:14:37;9.90;99.90
4820;DHT22;2424;49.696;6.630;2023-02-23T17:19:59;9.90;99.90
4820;DHT22;2424;49.696;6.630;2023-02-23T17:25:23;9.90;99.90
4820;DHT22;2424;49.696;6.630;2023-02-23T17:30:46;9.80;99.90
4820;DHT22;2424;49.696;6.630;2023-02-23T17:36:10;9.80;99.90
4820;DHT22;2424;49.696;6.630;2023-02-23T17:41:34;9.80;99.90
4820;DHT22;2424;49.696;6.630;2023-02-23T17:46:56;9.80;99.90
4820;DHT22;2424;49.696;6.630;2023-02-23T17:52:18;9.70;99.90
4820;DHT22;2424;49.696;6.630;2023-02-23T17:57:42;9.70;99.90
4820;DHT22;2424;49.696;6.630;2023-02-23T18:03:04;9.70;99.90
4820;DHT22;2424;49.696;6.630;2023-02-23T18:08:25;9.60;99.90
4820;DHT22;2424;49.696;6.630;2023-02-23T18:13:49;9.60;99.90
4820;DHT22;2424;49.696;6.630;2023-02-23T18:19:12;9.60;99.90
4820;DHT22;2424;49.696;6.630;2023-02-23T18:24:34;9.60;99.90
4820;DHT22;2424;49.696;6.630;2023-02-23T18:29:57;9.50;99.90
4820;DHT22;2424;49.696;6.630;2023-02-23T18:35:19;9.50;99.90
4820;DHT22;2424;49.696;6.630;2023-02-23T18:40:41;9.50;99.90
4820;DHT22;2424;49.696;6.630;2023-02-23T18:46:06;9.40;99.90
4820;DHT22;2424;49.696;6.630;2023-02-23T18:51:29;9.40;99.90
4820;DHT22;2424;49.696;6.630;2023-02-23T18:56:52;9.30;99.90
4820;DHT22;2424;49.696;6.630;2023-02-23T19:02:16;9.30;99.90
4820;DHT22;2424;49.696;6.630;2023-02-23T19:07:39;9.10;99.90
4820;DHT22;2424;49.696;6.630;2023-02-23T19:13:01;9.10;99.90
4820;DHT22;2424;49.696;6.630;2023-02-23T19:18:32;9.10;99.90
4820;DHT22;2424;49.696;6.630;2023-02-23T19:23:55;9.10;99.90
4820;DHT22;2424;49.696;6.630;2023-02-23T19:29:17;9.20;99.90
4820;DHT22;2424;49.696;6.630;2023-02-23T19:34:42;9.10;99.90
4820;DHT22;2424;49.696;6.630;2023-02-23T19:40:07;9.10;99.90
4820;DHT22;2424;49.696;6.630;2023-02-23T19:45:29;9.00;99.90
4820;DHT22;2424;49.696;6.630;2023-02-23T19:50:52;9.00;99.90
4820;DHT22;2424;49.696;6.630;2023-02-23T19:56:15;9.00;99.90
4820;DHT22;2424;49.696;6.630;2023-02-23T20:01:37;9.00;99.90
4820;DHT22;2424;49.696;6.630;2023-02-23T20:07:01;8.90;99.90
4820;DHT22;2424;49.696;6.630;2023-02-23T20:12:23;8.90;99.90
4820;DHT22;2424;49.696;6.630;2023-02-23T20:17:44;8.90;99.90
4820;DHT22;2424;49.696;6.630;2023-02-23T20:23:08;8.80;99.90
4820;DHT22;2424;49.696;6.630;2023-02-23T20:28:30;8.80;99.90
4820;DHT22;2424;49.696;6.630;2023-02-23T20:33:52;8.80;99.90
4820;DHT22;2424;49.696;6.630;2023-02-23T20:39:17;8.80;99.90
4820;DHT22;2424;49.696;6.630;2023-02-23T20:44:39;8.70;99.90
4820;DHT22;2424;49.696;6.630;2023-02-23T20:50:02;8.60;99.90
4820;DHT22;2424;49.696;6.630;2023-02-23T20:55:26;8.60;99.90
4820;DHT22;2424;49.696;6.630;2023-02-23T21:00:48;8.60;99.90
4820;DHT22;2424;49.696;6.630;2023-02-23T21:06:10;8.60;99.90
4820;DHT22;2424;49.696;6.630;2023-02-23T21:11:33;8.50;99.90
4820;DHT22;2424;49.696;6.630;2023-02-23T21:16:55;8.40;99.90
4820;DHT22;2424;49.696;6.630;2023-02-23T21:22:17;8.50;99.90
4820;DHT22;2424;49.696;6.630;2023-02-23T21:27:40;8.40;99.90
4820;DHT22;2424;49.696;6.630;2023-02-23T21:33:04;8.50;99.90
4820;DHT22;2424;49.696;6.630;2023-02-23T21:38:26;8.40;99.90
4820;DHT22;2424;49.696;6.630;2023-02-23T21:43:49;8.40;99.90
4820;DHT22;2424;49.696;6.630;2023-02-23T21:49:13;8.40;99.90
4820;DHT22;2424;49.696;6.630;2023-02-23T21:54:36;8.40;99.90
4820;DHT22;2424;49.696;6.630;2023-02-23T21:59:59;8.40;99.90
4820;DHT22;2424;49.696;6.630;2023-02-23T22:05:21;8.40;99.90
4820;DHT22;2424;49.696;6.630;2023-02-23T22:10:43;8.30;99.90
4820;DHT22;2424;49.696;6.630;2023-02-23T22:16:07;8.30;99.90
4820;DHT22;2424;49.696;6.630;2023-02-23T22:21:29;8.30;99.90
4820;DHT22;2424;49.696;6.630;2023-02-23T22:26:51;8.30;99.90
4820;DHT22;2424;49.696;6.630;2023-02-23T22:32:15;8.30;99.90
4820;DHT22;2424;49.696;6.630;2023-02-23T22:37:38;8.20;99.90
4820;DHT22;2424;49.696;6.630;2023-02-23T22:43:00;8.20;99.90
4820;DHT22;2424;49.696;6.630;2023-02-23T22:48:24;8.20;99.90
4820;DHT22;2424;49.696;6.630;2023-02-23T22:53:47;8.20;99.90
4820;DHT22;2424;49.696;6.630;2023-02-23T22:59:09;8.10;99.90
4820;DHT22;2424;49.696;6.630;2023-02-23T23:04:38;8.20;99.90
4820;DHT22;2424;49.696;6.630;2023-02-23T23:10:00;8.10;99.90
4820;DHT22;2424;49.696;6.630;2023-02-23T23:15:24;8.10;99.90
4820;DHT22;2424;49.696;6.630;2023-02-23T23:20:48;8.10;99.90
4820;DHT22;2424;49.696;6.630;2023-02-23T23:26:11;8.00;99.90
4820;DHT22;2424;49.696;6.630;2023-02-23T23:31:35;8.00;99.90
4820;DHT22;2424;49.696;6.630;2023-02-23T23:36:58;7.90;99.90
4820;DHT22;2424;49.696;6.630;2023-02-23T23:42:22;8.00;99.90
4820;DHT22;2424;49.696;6.630;2023-02-23T23:47:45;7.90;99.90
4820;DHT22;2424;49.696;6.630;2023-02-23T23:53:08;7.90;99.90
4820;DHT22;2424;49.696;6.630;2023-02-23T23:58:30;7.80;99.90
